METAR Data
IDs: Format: Raw Decoded Include TAF

Data at: 2102 UTC 01 Oct 2022

Region: TOP
KATL 012052Z 32019KT 10SM FEW050 26/12 A2987 RMK AO2 SLP108 T02560122 55000 $

KBOS 012054Z 01007KT 10SM OVC023 14/09 A3009 RMK AO2 SLP188 T01390089 56010

KBWI 012054Z 06012KT 6SM BR OVC007 17/15 A2985 RMK AO2 SLP106 60002 T01670150 56010

KCLE 012051Z 02013G21KT 10SM OVC180 17/10 A3005 RMK AO2 PK WND 02026/2010 SLP192 T01720100 55006 $

KCLT 012052Z 33006KT 10SM SCT040 OVC055 19/12 A2984 RMK SLP100 T01890117 $

KCVG 012052Z 36015G21KT 10SM SCT100 23/09 A2999 RMK AO2 SLP151 T02280089 56014

KDCA 012052Z 03009G18KT 10SM OVC008 17/16 A2983 RMK AO2 RAE1953 SLP101 P0000 60000 T01720156 56009 $

KDEN 012053Z 10011G20KT 10SM SCT090 SCT150 BKN200 22/08 A3006 RMK AO2 LTG DSNT S SLP118 T02170083 56016

KDFW 012053Z VRB06KT 10SM CLR 27/05 A3002 RMK AO2 SLP160 T02670050 56024

KDTW 012053Z 03013KT 10SM BKN250 22/02 A3012 RMK AO2 SLP201 T02170022 55016

KEWR 012051Z 02014G21KT 5SM -RA BR BKN008 OVC020 13/13 A2996 RMK AO2 RAB12 SLP145 P0001 60001 T01330133 55004 $

KFLL 012053Z 03010KT 10SM BKN030 BKN045 BKN065 28/21 A2980 RMK AO2 SLP089 T02780211 55008

KIAD 012052Z 00000KT 6SM -RA BR OVC005 16/15 A2985 RMK AO2 SLP106 P0000 60000 T01560150 55004

KIAH 012053Z 01007KT 10SM CLR 29/09 A2998 RMK AO2 SLP152 T02890094 56022

KJFK 012059Z 04013KT 1SM R04R/5500VP6000FT -RA BR OVC009 15/14 A2996 RMK AO2 SFC VIS 2 RAB54 P0000 T01500144

KLAS 012056Z 08005KT 10SM FEW150 33/02 A2982 RMK AO2 SLP069 T03280022 58022

KLAX 012053Z 24013KT 10SM FEW021 SCT110 23/15 A2986 RMK AO2 SLP109 T02280150 57012

KLGA 012051Z 05020G27KT 10SM OVC009 17/13 A2996 RMK AO2 PK WND 05027/2051 SLP145 T01670133 55004

KMCO 012053Z 35007KT 10SM FEW050 29/17 A2983 RMK AO2 SLP099 T02940167 56009

KMDW 012053Z 04011KT 10SM CLR 21/07 A3020 RMK AO2 SLP224 T02060067 56007

KMEM 012054Z 02009KT 10SM FEW250 25/04 A3003 RMK AO2 SLP167 T02500044 56012 $

KMIA 012053Z 07006KT 10SM BKN032 BKN055 28/22 A2981 RMK AO2 SLP095 T02780217 55007 $

KMSP 012053Z 12008KT 10SM OVC095 19/08 A3025 RMK AO2 RAB16E32 SLP242 P0000 60000 T01890078 56004

KORD 012051Z 04013KT 10SM CLR 19/06 A3021 RMK AO2 SLP229 T01890061 56007

KPDX 012053Z 07014G21KT 10SM CLR 29/10 A2991 RMK AO2 SLP126 T02890100 56023 $

KPHL 012054Z 04013KT 2SM BR OVC006 17/14 A2991 RMK AO2 SLP129 T01670144 56005

KPHX 012051Z 00000KT 10SM FEW100 FEW250 35/11 A2977 RMK AO2 SLP061 CB DSNT N AND NW T03500111 58023 $

KPIT 012051Z 01012KT 4SM -RA BR BKN009 OVC032 11/10 A2999 RMK AO2 SLP163 P0001 60006 T01110100 55001

KSAN 012051Z 27010KT 10SM FEW026 23/13 A2987 RMK AO2 SLP115 T02280133 58014

KSEA 012053Z 01011KT 10SM CLR 24/12 A2998 RMK AO2 SLP157 T02390122 58021

KSFO 012056Z 04006KT 10SM FEW009 20/14 A2985 RMK AO2 SLP108 T02000139 58006

KSLC 012054Z 32007KT 10SM SCT060 SCT200 21/04 A3004 RMK AO2 SLP134 T02110039 57013 $

KSTL 012051Z VRB04KT 10SM FEW250 24/04 A3014 RMK AO2 SLP203 T02390039 56012

KTPA 012053Z 26011G19KT 10SM FEW040 27/17 A2984 RMK AO2 SLP105 T02720167 56010